Plumas, Canada
Current Conditions -  °F | °C
As of 4:00 AM on Saturday 29 Nov 2014 (Local Time) from CYBR Reporting Station
Light Snow Light Snow  
Wind Chill: -5°   Ceiling: 3100
Heat Index:   Visibility: 8mi
Dew Point:   Wind: 9mph
Humidity: 85%   Direction: 50°NE
Pressure: 29.47"   Gusts: NA
Location:  50.38°N, 99.08°W
Report Text: CYBR 291000Z 05008KT 8SM -SN OVC031 M13/M15 A2947 RMK SC8 /S02/ PRESFR SLP016
Loading
Personal Weather Stations






























Interactive Weather Map New forecast layout! Learn more

10-Day Weather Forecast

Advertisements
Track Severe Weather on mobile